Time;durP1;ratioP1;P1;durP2;ratioP2;P2;SDS_P1;SDS_P2;PMS_P1;PMS_P2;Temp;Humidity;BMP_temperature;BMP_pressure;BME280_temperature;BME280_humidity;BME280_pressure;Samples;Min_cycle;Max_cycle;Signal;HPM_P1;HPM_P2
2023/06/23 00:00:20;;;;;;;16.52;5.28;;;22.10;99.90;;;;;;5010878;28;20049;-84
2023/06/23 00:03:25;;;;;;;12.55;5.30;;;22.10;99.90;;;;;;5009691;28;20045;-84
2023/06/23 00:06:29;;;;;;;14.32;5.28;;;22.10;99.90;;;;;;5010666;28;20044;-83
2023/06/23 00:09:33;;;;;;;9.25;5.30;;;22.10;99.90;;;;;;5010653;28;20057;-82
2023/06/23 00:12:41;;;;;;;12.05;5.65;;;22.00;99.90;;;;;;5011133;28;20049;-82
2023/06/23 00:15:45;;;;;;;12.65;5.63;;;21.80;99.90;;;;;;5010235;28;20401;-84
2023/06/23 00:18:49;;;;;;;12.23;5.68;;;21.70;99.90;;;;;;5010884;28;20065;-84
2023/06/23 00:21:53;;;;;;;11.18;4.50;;;21.60;99.90;;;;;;5010112;28;20045;-84
2023/06/23 00:24:57;;;;;;;9.70;4.85;;;21.60;99.90;;;;;;5011090;28;20389;-85
2023/06/23 00:28:01;;;;;;;9.07;5.40;;;21.60;99.90;;;;;;5013728;28;20053;-84
2023/06/23 00:31:05;;;;;;;9.23;4.97;;;21.60;99.90;;;;;;5028489;28;20053;-84
2023/06/23 00:34:09;;;;;;;6.43;4.45;;;21.60;99.90;;;;;;5015123;28;20392;-84
2023/06/23 00:37:14;;;;;;;9.27;5.30;;;21.50;99.90;;;;;;5011096;28;20044;-85
2023/06/23 00:40:22;;;;;;;13.60;5.15;;;21.40;99.90;;;;;;5017840;28;20053;-85
2023/06/23 00:43:30;;;;;;;11.35;5.50;;;21.40;99.90;;;;;;5013841;28;20041;-84
2023/06/23 00:46:34;;;;;;;17.08;5.90;;;21.30;99.90;;;;;;5017696;28;20053;-85
2023/06/23 00:49:41;;;;;;;11.48;5.90;;;21.20;99.90;;;;;;5013913;28;20041;-83
2023/06/23 00:52:52;;;;;;;12.27;5.65;;;20.80;99.90;;;;;;5010612;28;20053;-84
2023/06/23 00:56:00;;;;;;;9.80;5.45;;;20.70;99.90;;;;;;5012605;28;20044;-84
2023/06/23 00:59:05;;;;;;;10.00;5.70;;;20.60;99.90;;;;;;5013152;28;20053;-83
2023/06/23 01:02:09;;;;;;;12.75;5.80;;;20.50;99.90;;;;;;5022607;28;20045;-84
2023/06/23 01:05:13;;;;;;;14.00;6.05;;;20.40;99.90;;;;;;5009214;28;20044;-84
2023/06/23 01:08:36;;;;;;;20.98;6.45;;;20.40;99.90;;;;;;5009475;28;20033;-82
2023/06/23 01:11:50;;;;;;;8.38;5.50;;;20.40;99.90;;;;;;5010788;28;20044;-84
2023/06/23 01:14:59;;;;;;;14.30;6.35;;;20.40;99.90;;;;;;5011742;28;20045;-85
2023/06/23 01:18:35;;;;;;;10.10;6.70;;;20.40;99.90;;;;;;5025261;28;20049;-86
2023/06/23 01:21:41;;;;;;;13.77;5.70;;;20.50;99.90;;;;;;5015851;28;20053;-83
2023/06/23 01:25:20;;;;;;;9.40;4.93;;;20.60;99.90;;;;;;5026893;28;20049;-79
2023/06/23 01:28:45;;;;;;;8.57;5.32;;;20.60;99.90;;;;;;5016485;28;20069;-84
2023/06/23 01:32:05;;;;;;;8.63;4.65;;;20.70;99.90;;;;;;5024492;28;20064;-85
2023/06/23 01:35:18;;;;;;;9.18;4.97;;;20.90;99.90;;;;;;5013401;28;20064;-84
2023/06/23 01:38:32;;;;;;;14.35;5.05;;;21.00;99.90;;;;;;5014710;28;20041;-86
2023/06/23 01:41:52;;;;;;;11.00;5.05;;;21.00;99.90;;;;;;5002524;28;20049;-86
2023/06/23 01:45:00;;;;;;;13.02;5.53;;;21.10;99.90;;;;;;5015662;28;20045;-84
2023/06/23 01:48:09;;;;;;;7.65;4.65;;;21.20;99.90;;;;;;5027046;28;20492;-85
2023/06/23 01:51:15;;;;;;;22.42;5.03;;;21.30;99.90;;;;;;5030324;28;20037;-87
2023/06/23 01:54:21;;;;;;;13.85;4.95;;;21.30;99.90;;;;;;5014775;28;20057;-82
2023/06/23 01:57:26;;;;;;;8.27;4.65;;;21.40;99.90;;;;;;5011881;28;20114;-84
2023/06/23 02:00:31;;;;;;;8.85;4.57;;;21.40;99.90;;;;;;5001876;28;20052;-84
2023/06/23 02:03:36;;;;;;;11.10;4.93;;;21.40;99.90;;;;;;5014087;28;20049;-85
2023/06/23 02:06:44;;;;;;;6.95;4.40;;;21.40;99.90;;;;;;5012342;28;20060;-86
2023/06/23 02:09:49;;;;;;;8.30;4.43;;;21.40;99.90;;;;;;5012388;28;20044;-85
2023/06/23 02:12:56;;;;;;;16.13;5.57;;;21.40;99.90;;;;;;5014456;28;20523;-90
2023/06/23 02:16:02;;;;;;;15.07;4.90;;;21.50;99.90;;;;;;5015043;28;20400;-85
2023/06/23 02:19:08;;;;;;;8.25;4.53;;;21.50;99.90;;;;;;5021168;28;20088;-87
2023/06/23 02:22:18;;;;;;;6.40;4.60;;;21.40;99.90;;;;;;5016231;28;20045;-87
2023/06/23 02:25:24;;;;;;;7.95;4.45;;;21.40;99.90;;;;;;5015357;28;20036;-83
2023/06/23 02:28:32;;;;;;;10.52;4.75;;;21.50;99.90;;;;;;5014900;28;20045;-88
2023/06/23 02:31:36;;;;;;;11.55;4.25;;;21.60;99.90;;;;;;5014048;28;20048;-83
2023/06/23 02:34:40;;;;;;;10.43;4.38;;;21.80;99.90;;;;;;5014344;28;20472;-83
2023/06/23 02:37:58;;;;;;;7.63;4.28;;;22.00;99.90;;;;;;5016370;28;20049;-86
2023/06/23 02:41:07;;;;;;;14.38;4.40;;;22.10;99.90;;;;;;5013455;28;20040;-81
2023/06/23 02:44:15;;;;;;;12.93;4.72;;;22.30;99.90;;;;;;5013388;28;20519;-87
2023/06/23 02:47:21;;;;;;;14.05;4.50;;;22.50;99.90;;;;;;5022703;28;20678;-82
2023/06/23 02:50:31;;;;;;;7.57;4.07;;;22.60;99.90;;;;;;5023662;28;20049;-85
2023/06/23 02:53:47;;;;;;;9.05;4.43;;;22.60;99.90;;;;;;5014168;28;20496;-82
2023/06/23 02:56:54;;;;;;;11.30;4.82;;;22.70;99.90;;;;;;5013414;28;20045;-86
2023/06/23 03:00:00;;;;;;;7.78;4.10;;;22.80;99.20;;;;;;5013524;28;20049;-84
2023/06/23 03:03:09;;;;;;;15.77;5.55;;;22.90;99.50;;;;;;5011315;28;20523;-85
2023/06/23 03:06:18;;;;;;;10.20;4.45;;;22.40;99.90;;;;;;5013232;28;20041;-84
2023/06/23 03:09:25;;;;;;;8.75;4.82;;;22.00;99.90;;;;;;5012759;28;20393;-84
2023/06/23 03:12:29;;;;;;;8.93;4.97;;;21.70;99.90;;;;;;5014541;28;20053;-84
2023/06/23 03:15:33;;;;;;;6.03;4.32;;;21.20;99.90;;;;;;5019231;28;20049;-84
2023/06/23 03:18:43;;;;;;;7.13;4.90;;;21.20;99.90;;;;;;5019654;28;20045;-85
2023/06/23 03:21:57;;;;;;;12.95;5.20;;;21.10;99.90;;;;;;5013636;28;20392;-85
2023/06/23 03:25:05;;;;;;;10.18;5.22;;;21.10;99.90;;;;;;5013039;28;20045;-84
2023/06/23 03:28:16;;;;;;;8.80;5.15;;;21.00;99.90;;;;;;5011965;28;20526;-84
2023/06/23 03:31:22;;;;;;;10.13;5.33;;;20.60;99.90;;;;;;5011676;28;20052;-86
2023/06/23 03:34:54;;;;;;;8.50;5.15;;;20.40;99.90;;;;;;5011666;28;20069;-86
2023/06/23 03:38:01;;;;;;;13.18;5.22;;;20.30;99.90;;;;;;5022258;28;20052;-86
2023/06/23 03:41:10;;;;;;;16.48;4.88;;;20.40;99.90;;;;;;5010180;28;20400;-86
2023/06/23 03:44:23;;;;;;;9.55;5.20;;;20.40;99.90;;;;;;5010937;28;20071;-86
2023/06/23 03:47:30;;;;;;;10.70;5.45;;;20.40;99.90;;;;;;5011182;28;20044;-86
2023/06/23 03:50:36;;;;;;;10.18;5.82;;;20.50;99.90;;;;;;5012069;28;20389;-87
2023/06/23 03:53:41;;;;;;;15.40;5.47;;;20.60;99.90;;;;;;5012485;28;20045;-86
2023/06/23 03:56:48;;;;;;;16.88;5.68;;;20.60;99.90;;;;;;5011552;28;20052;-86
2023/06/23 03:59:54;;;;;;;9.15;5.18;;;20.70;99.90;;;;;;5012123;28;20389;-86
2023/06/23 04:03:01;;;;;;;8.85;4.82;;;20.70;99.90;;;;;;5010138;28;20056;-85
2023/06/23 04:06:07;;;;;;;9.88;5.13;;;20.70;99.90;;;;;;5021743;28;20056;-86
2023/06/23 04:09:14;;;;;;;13.32;5.07;;;20.70;99.90;;;;;;5011316;28;20385;-86
2023/06/23 04:12:21;;;;;;;8.93;4.90;;;20.60;99.90;;;;;;5010888;28;20048;-85
2023/06/23 04:15:26;;;;;;;7.35;4.45;;;20.70;99.90;;;;;;5011393;28;20049;-86
2023/06/23 04:18:33;;;;;;;9.55;5.60;;;20.80;99.90;;;;;;5010832;28;20061;-86
2023/06/23 04:21:39;;;;;;;13.88;5.25;;;21.00;99.90;;;;;;5011475;28;20401;-87
2023/06/23 04:24:45;;;;;;;11.93;4.68;;;21.20;99.90;;;;;;5012078;28;20041;-86
2023/06/23 04:27:55;;;;;;;10.77;4.95;;;21.30;99.90;;;;;;5011484;28;20492;-86
2023/06/23 04:31:02;;;;;;;8.55;5.28;;;21.40;99.90;;;;;;5012031;28;20037;-85
2023/06/23 04:34:06;;;;;;;9.57;5.32;;;21.50;99.90;;;;;;5018136;28;20049;-86
2023/06/23 04:37:21;;;;;;;9.98;5.28;;;21.50;99.90;;;;;;5028287;28;20030;-86
2023/06/23 04:40:46;;;;;;;9.45;5.03;;;21.50;99.90;;;;;;5012565;28;20033;-86
2023/06/23 04:43:54;;;;;;;14.10;6.05;;;21.70;99.90;;;;;;5012820;28;20053;-86
2023/06/23 04:47:02;;;;;;;10.88;4.95;;;21.90;99.90;;;;;;5016089;28;20045;-85
2023/06/23 04:50:14;;;;;;;13.40;5.47;;;22.10;99.90;;;;;;5026103;28;20413;-86
2023/06/23 04:53:21;;;;;;;12.93;5.68;;;22.20;99.90;;;;;;5017884;28;20052;-87
2023/06/23 04:56:32;;;;;;;22.73;7.93;;;22.50;99.90;;;;;;5021927;28;20045;-86
2023/06/23 04:59:39;;;;;;;17.35;8.65;;;22.50;99.90;;;;;;5024206;28;20045;-86
2023/06/23 05:02:45;;;;;;;26.52;8.90;;;22.50;99.90;;;;;;5029624;28;20041;-86
2023/06/23 05:05:57;;;;;;;21.40;9.90;;;22.80;99.90;;;;;;5027738;28;20049;-87
2023/06/23 05:09:04;;;;;;;34.08;12.95;;;23.20;99.90;;;;;;5017436;28;20053;-88
2023/06/23 05:12:11;;;;;;;32.58;13.82;;;23.50;99.90;;;;;;5017197;28;20400;-88
2023/06/23 05:15:18;;;;;;;36.15;13.98;;;23.80;99.90;;;;;;5024710;28;20045;-86
2023/06/23 05:18:24;;;;;;;40.13;13.50;;;25.40;99.90;;;;;;5027336;28;20052;-84
2023/06/23 05:21:31;;;;;;;24.73;10.13;;;27.90;99.90;;;;;;5017272;28;20057;-84
2023/06/23 05:24:50;;;;;;;20.02;8.85;;;29.90;99.90;;;;;;5017557;28;20041;-84
2023/06/23 05:27:59;;;;;;;17.33;7.05;;;31.50;97.80;;;;;;5015662;28;20044;-82
2023/06/23 05:31:06;;;;;;;14.30;7.35;;;31.90;96.80;;;;;;5026786;28;20416;-85
2023/06/23 05:34:15;;;;;;;17.42;7.43;;;30.70;96.50;;;;;;5015740;28;20045;-85
2023/06/23 05:37:23;;;;;;;19.20;11.93;;;29.90;97.20;;;;;;5014989;28;20045;-86
2023/06/23 05:40:27;;;;;;;23.48;13.00;;;30.50;96.90;;;;;;5015730;28;20057;-86
2023/06/23 05:43:31;;;;;;;24.85;15.60;;;31.70;96.30;;;;;;5025910;28;20053;-85
2023/06/23 05:46:40;;;;;;;21.58;12.93;;;32.70;95.20;;;;;;5015467;28;20041;-84
2023/06/23 05:49:45;;;;;;;23.95;12.95;;;33.10;94.50;;;;;;5016067;28;20049;-83
2023/06/23 05:52:59;;;;;;;18.42;12.85;;;32.90;94.40;;;;;;5011449;28;20045;-84
2023/06/23 05:56:30;;;;;;;18.85;10.80;;;32.20;94.70;;;;;;5021260;28;20049;-84
2023/06/23 05:59:41;;;;;;;20.02;15.35;;;31.70;94.90;;;;;;5005039;28;20037;-84
2023/06/23 06:02:48;;;;;;;39.83;26.52;;;31.30;94.20;;;;;;5003560;28;20041;-83
2023/06/23 06:05:56;;;;;;;24.02;14.48;;;30.40;95.10;;;;;;5017234;28;20065;-83
2023/06/23 06:09:01;;;;;;;10.90;7.90;;;30.40;94.30;;;;;;5019065;28;20306;-84
2023/06/23 06:12:06;;;;;;;11.32;6.45;;;31.20;94.60;;;;;;5016444;28;20053;-84
2023/06/23 06:15:13;;;;;;;9.98;6.45;;;32.00;93.80;;;;;;5016045;28;20507;-85
2023/06/23 06:18:19;;;;;;;8.48;5.97;;;32.70;93.70;;;;;;5013294;28;20056;-84
2023/06/23 06:21:24;;;;;;;13.30;5.88;;;33.30;92.50;;;;;;5020155;28;20037;-84
2023/06/23 06:24:30;;;;;;;8.85;5.57;;;33.50;91.80;;;;;;5012308;28;20547;-85
2023/06/23 06:27:35;;;;;;;14.98;5.72;;;33.10;91.90;;;;;;5020470;28;20392;-85
2023/06/23 06:30:42;;;;;;;10.93;5.22;;;32.70;92.40;;;;;;5014909;28;20096;-85
2023/06/23 06:33:50;;;;;;;14.93;5.10;;;32.30;92.40;;;;;;4995245;28;20496;-85
2023/06/23 06:36:55;;;;;;;10.23;5.78;;;32.00;92.80;;;;;;5016705;28;20498;-85
2023/06/23 06:40:01;;;;;;;8.35;4.80;;;32.30;92.90;;;;;;5028294;28;20060;-84
2023/06/23 06:43:06;;;;;;;9.25;4.80;;;32.70;92.50;;;;;;5010828;28;20056;-84
2023/06/23 06:46:13;;;;;;;10.55;5.68;;;32.70;92.00;;;;;;5024263;28;20041;-83
2023/06/23 06:49:18;;;;;;;7.55;5.22;;;32.60;92.40;;;;;;5017778;28;20045;-84
2023/06/23 06:52:24;;;;;;;11.68;5.38;;;33.40;92.40;;;;;;5015406;28;20041;-87
2023/06/23 06:55:31;;;;;;;11.50;4.72;;;34.30;91.80;;;;;;5012018;28;20044;-85
2023/06/23 06:58:35;;;;;;;7.05;3.85;;;35.20;90.30;;;;;;5007947;28;20041;-85
2023/06/23 07:01:40;;;;;;;12.65;4.70;;;36.30;89.00;;;;;;5021269;28;20048;-85
2023/06/23 07:04:44;;;;;;;6.40;3.22;;;36.60;87.60;;;;;;5016126;28;20041;-85
2023/06/23 07:07:49;;;;;;;26.88;7.53;;;36.30;87.70;;;;;;5019162;28;20045;-87
2023/06/23 07:10:53;;;;;;;9.50;4.25;;;35.40;88.60;;;;;;5020246;28;20041;-84
2023/06/23 07:13:57;;;;;;;9.50;4.30;;;34.90;90.10;;;;;;5011315;28;20045;-85
2023/06/23 07:17:00;;;;;;;7.00;3.95;;;34.50;90.50;;;;;;5013643;28;20053;-86
2023/06/23 07:20:08;;;;;;;8.23;4.13;;;35.40;90.40;;;;;;5002415;28;20590;-87
2023/06/23 07:23:18;;;;;;;6.28;3.60;;;36.50;90.00;;;;;;5014380;28;20057;-86
2023/06/23 07:26:22;;;;;;;6.75;3.90;;;37.10;88.80;;;;;;5015308;28;20040;-85
2023/06/23 07:29:26;;;;;;;11.98;4.32;;;36.80;88.40;;;;;;5011832;28;20515;-85
2023/06/23 07:32:30;;;;;;;15.00;4.47;;;36.30;89.30;;;;;;5015530;28;20048;-84
2023/06/23 07:35:35;;;;;;;12.88;4.70;;;35.60;90.60;;;;;;4988407;28;20495;-85
2023/06/23 07:38:40;;;;;;;14.15;4.80;;;35.00;91.20;;;;;;5009666;28;20045;-86
2023/06/23 07:41:44;;;;;;;11.48;4.60;;;34.40;92.00;;;;;;5007007;28;20383;-86
2023/06/23 07:44:48;;;;;;;13.95;4.82;;;34.00;92.50;;;;;;5000428;28;20052;-86
2023/06/23 07:47:51;;;;;;;14.75;5.72;;;33.90;93.10;;;;;;5011445;28;20040;-87
2023/06/23 07:50:55;;;;;;;14.30;5.00;;;34.60;93.10;;;;;;4999209;28;20045;-86
2023/06/23 07:54:00;;;;;;;15.50;5.80;;;35.80;92.20;;;;;;5018899;28;20459;-86
2023/06/23 07:57:08;;;;;;;17.52;5.53;;;36.60;91.50;;;;;;5013035;28;20044;-84
2023/06/23 08:00:12;;;;;;;15.57;4.90;;;36.70;91.70;;;;;;5015864;28;20053;-83
2023/06/23 08:03:19;;;;;;;18.13;5.32;;;37.90;91.30;;;;;;5014346;28;20049;-85
2023/06/23 08:06:24;;;;;;;14.45;4.63;;;38.80;90.70;;;;;;5012775;28;20040;-84
2023/06/23 08:09:28;;;;;;;19.30;5.28;;;39.20;90.10;;;;;;5009809;28;20056;-86
2023/06/23 08:12:33;;;;;;;15.75;5.28;;;39.10;90.10;;;;;;5019408;28;20045;-87
2023/06/23 08:15:37;;;;;;;19.50;4.88;;;39.30;90.10;;;;;;5010527;28;20040;-86
2023/06/23 08:18:41;;;;;;;20.05;5.65;;;40.20;89.60;;;;;;5009913;28;20048;-84
2023/06/23 08:21:45;;;;;;;20.45;5.20;;;40.80;88.70;;;;;;5010514;28;20048;-82
2023/06/23 08:24:49;;;;;;;18.88;4.93;;;40.50;88.30;;;;;;5016730;28;20396;-85
2023/06/23 08:27:53;;;;;;;15.30;5.22;;;39.70;88.60;;;;;;5012362;28;20045;-88
2023/06/23 08:30:57;;;;;;;31.58;5.13;;;40.10;88.60;;;;;;5009919;28;20045;-83
2023/06/23 08:34:02;;;;;;;17.65;4.88;;;40.70;87.70;;;;;;5009540;28;20397;-84
2023/06/23 08:37:06;;;;;;;14.05;4.60;;;41.80;86.70;;;;;;5005822;28;20044;-85
2023/06/23 08:40:10;;;;;;;24.58;6.00;;;43.10;84.80;;;;;;5006866;28;20044;-83
2023/06/23 08:43:15;;;;;;;17.05;5.15;;;43.80;84.80;;;;;;5021142;28;20036;-84
2023/06/23 08:46:22;;;;;;;19.65;5.65;;;44.70;82.20;;;;;;5026427;28;20040;-84
2023/06/23 08:49:30;;;;;;;18.50;5.18;;;45.00;80.20;;;;;;5027002;28;20032;-86
2023/06/23 08:52:35;;;;;;;17.40;5.47;;;44.10;81.30;;;;;;4993898;28;20500;-84
2023/06/23 08:55:39;;;;;;;13.65;5.25;;;41.50;81.30;;;;;;5016338;28;20086;-85
2023/06/23 08:58:43;;;;;;;16.40;5.28;;;40.40;85.00;;;;;;5005222;28;20041;-84
2023/06/23 09:01:47;;;;;;;21.27;5.45;;;38.30;86.40;;;;;;5000925;28;20503;-83
2023/06/23 09:04:52;;;;;;;19.27;5.72;;;37.80;89.70;;;;;;5004241;28;20048;-82
2023/06/23 09:07:58;;;;;;;15.13;4.55;;;36.80;89.30;;;;;;5014166;28;20037;-82
2023/06/23 09:11:04;;;;;;;16.30;5.88;;;36.30;90.60;;;;;;5008397;28;20052;-83
2023/06/23 09:14:09;;;;;;;19.80;5.80;;;36.40;91.10;;;;;;5007854;28;20057;-84
2023/06/23 09:17:15;;;;;;;21.50;6.07;;;36.40;91.00;;;;;;5001149;28;20045;-84
2023/06/23 09:20:19;;;;;;;18.35;6.28;;;35.40;90.90;;;;;;4998920;28;20432;-82
2023/06/23 09:23:23;;;;;;;19.55;6.38;;;35.30;91.40;;;;;;5000466;28;20053;-87
2023/06/23 09:26:27;;;;;;;20.00;6.40;;;35.00;90.50;;;;;;5003270;28;20037;-83
2023/06/23 09:29:32;;;;;;;19.10;5.80;;;34.90;91.40;;;;;;5006219;28;20044;-80
2023/06/23 09:32:36;;;;;;;17.95;5.53;;;37.80;91.20;;;;;;5003627;28;20117;-80
2023/06/23 09:35:51;;;;;;;16.38;5.22;;;41.40;88.10;;;;;;5016593;28;20124;-84
2023/06/23 09:38:55;;;;;;;16.75;5.30;;;42.90;83.60;;;;;;5012939;28;20045;-82
2023/06/23 09:41:59;;;;;;;24.77;6.28;;;42.30;84.50;;;;;;5008808;28;20049;-84
2023/06/23 09:45:16;;;;;;;18.30;6.55;;;41.30;84.50;;;;;;5011309;28;20053;-82
2023/06/23 09:48:20;;;;;;;23.15;6.20;;;40.20;86.80;;;;;;5014592;28;20084;-82
2023/06/23 09:51:25;;;;;;;22.20;6.88;;;38.90;87.90;;;;;;5019809;28;20040;-85
2023/06/23 09:54:37;;;;;;;21.60;6.53;;;38.50;90.00;;;;;;5007193;28;20053;-82
2023/06/23 09:57:41;;;;;;;22.10;5.82;;;38.60;89.70;;;;;;5012727;28;20044;-84
2023/06/23 10:00:46;;;;;;;17.85;4.82;;;41.20;88.30;;;;;;5018749;28;20199;-84
2023/06/23 10:03:52;;;;;;;21.65;6.07;;;43.20;85.30;;;;;;5005722;28;20062;-84
2023/06/23 10:06:58;;;;;;;13.02;5.13;;;42.70;84.40;;;;;;5012818;28;20048;-87
2023/06/23 10:10:07;;;;;;;14.23;4.70;;;42.90;84.90;;;;;;5002323;28;20384;-89
2023/06/23 10:13:11;;;;;;;15.65;5.57;;;44.80;82.70;;;;;;5013925;28;20512;-83
2023/06/23 10:16:16;;;;;;;18.50;5.25;;;43.90;81.30;;;;;;5013146;28;20480;-85
2023/06/23 10:19:20;;;;;;;17.00;5.75;;;41.80;84.20;;;;;;5014916;28;20048;-87
2023/06/23 10:22:26;;;;;;;19.35;5.40;;;40.10;86.50;;;;;;5007312;28;20065;-87
2023/06/23 10:25:34;;;;;;;19.70;5.65;;;38.70;88.40;;;;;;5012572;28;20044;-85
2023/06/23 10:28:43;;;;;;;14.75;5.10;;;38.50;88.60;;;;;;5008223;28;20045;-89
2023/06/23 10:31:50;;;;;;;17.55;5.88;;;40.80;86.30;;;;;;5010763;28;20507;-85
2023/06/23 10:34:59;;;;;;;19.00;5.97;;;40.50;85.20;;;;;;5010964;28;20045;-85
2023/06/23 10:38:04;;;;;;;21.27;5.80;;;39.30;85.10;;;;;;5011479;28;20508;-84
2023/06/23 10:41:11;;;;;;;19.02;6.35;;;39.70;85.60;;;;;;5012887;28;20384;-85
2023/06/23 10:44:16;;;;;;;22.23;5.60;;;39.60;85.50;;;;;;5013943;28;20057;-82
2023/06/23 10:47:22;;;;;;;15.80;4.95;;;38.90;87.20;;;;;;5014652;28;20053;-88
2023/06/23 10:50:30;;;;;;;23.88;6.45;;;40.70;85.40;;;;;;5012680;28;20037;-88
2023/06/23 10:53:42;;;;;;;16.55;6.00;;;40.40;86.00;;;;;;5000464;28;20065;-85
2023/06/23 10:56:52;;;;;;;28.23;6.65;;;40.40;85.30;;;;;;5001006;28;20057;-83
2023/06/23 11:00:06;;;;;;;15.80;6.15;;;37.30;86.90;;;;;;5013863;28;20048;-82
2023/06/23 11:03:31;;;;;;;15.32;5.13;;;39.30;87.00;;;;;;5010319;28;20045;-89
2023/06/23 11:06:36;;;;;;;16.40;5.63;;;39.70;85.40;;;;;;5008560;28;20045;-83
2023/06/23 11:09:44;;;;;;;15.07;4.85;;;41.10;83.90;;;;;;5011067;28;20048;-84
2023/06/23 11:12:50;;;;;;;20.70;5.63;;;42.70;83.40;;;;;;5011133;28;20045;-84
2023/06/23 11:15:58;;;;;;;17.55;5.20;;;43.80;82.50;;;;;;5013646;28;20129;-84
2023/06/23 11:19:02;;;;;;;17.13;5.75;;;44.30;81.40;;;;;;5002556;28;20396;-82
2023/06/23 11:22:09;;;;;;;14.48;4.63;;;43.30;81.30;;;;;;5011023;28;20044;-84
2023/06/23 11:25:33;;;;;;;14.77;5.35;;;42.30;80.90;;;;;;5009277;28;20053;-86
2023/06/23 11:28:38;;;;;;;15.20;5.60;;;41.80;80.50;;;;;;5006102;28;20053;-81
2023/06/23 11:32:05;;;;;;;13.80;5.20;;;40.80;82.00;;;;;;5008014;28;20044;-81
2023/06/23 11:35:09;;;;;;;21.50;6.07;;;39.40;83.80;;;;;;5007212;28;20057;-80
2023/06/23 11:38:15;;;;;;;22.52;6.03;;;40.10;83.40;;;;;;5004368;28;20045;-78
2023/06/23 11:41:32;;;;;;;20.13;6.13;;;39.80;83.40;;;;;;5008237;28;20056;-80
2023/06/23 11:44:37;;;;;;;19.38;5.90;;;38.50;86.50;;;;;;5009878;28;20045;-79
2023/06/23 11:47:41;;;;;;;25.98;6.85;;;36.70;88.30;;;;;;5009620;28;20066;-78
2023/06/23 11:50:46;;;;;;;14.48;6.60;;;34.40;90.50;;;;;;5007443;28;20114;-80
2023/06/23 11:53:51;;;;;;;20.38;6.65;;;35.10;91.20;;;;;;5010518;28;20452;-80
2023/06/23 11:56:57;;;;;;;19.23;6.53;;;36.50;89.60;;;;;;5008681;28;20117;-81
2023/06/23 12:00:05;;;;;;;14.35;5.72;;;37.00;89.40;;;;;;4997784;28;20056;-80
2023/06/23 12:03:13;;;;;;;23.02;6.80;;;36.80;88.30;;;;;;5009163;28;20496;-80
2023/06/23 12:06:18;;;;;;;19.48;6.00;;;36.70;88.30;;;;;;5011832;28;20049;-80
2023/06/23 12:09:23;;;;;;;18.38;5.82;;;36.50;89.60;;;;;;5007650;28;20057;-79
2023/06/23 12:12:27;;;;;;;20.75;6.55;;;36.20;89.00;;;;;;5005291;28;20057;-80
2023/06/23 12:15:35;;;;;;;24.00;6.63;;;34.50;91.20;;;;;;5014009;28;20104;-80
2023/06/23 12:18:43;;;;;;;20.58;6.45;;;34.60;91.90;;;;;;5005511;28;20065;-79
2023/06/23 12:21:48;;;;;;;23.20;6.82;;;35.30;91.80;;;;;;5007035;28;20041;-79
2023/06/23 12:24:55;;;;;;;19.85;6.30;;;35.60;91.10;;;;;;5009729;28;20053;-80
2023/06/23 12:27:59;;;;;;;17.23;5.85;;;35.60;91.60;;;;;;5010072;28;20049;-80
2023/06/23 12:31:06;;;;;;;16.05;5.75;;;35.80;91.30;;;;;;5009123;28;20441;-79
2023/06/23 12:34:13;;;;;;;18.27;5.85;;;35.30;90.30;;;;;;5004392;28;20053;-79
2023/06/23 12:37:18;;;;;;;20.58;6.40;;;35.50;90.60;;;;;;5011415;28;20048;-79
2023/06/23 12:45:08;;;;;;;19.92;6.28;;;35.30;91.10;;;;;;5011151;28;20053;-79
2023/06/23 12:48:12;;;;;;;18.25;7.00;;;35.00;91.00;;;;;;5011178;28;20049;-81
2023/06/23 12:51:18;;;;;;;19.83;6.95;;;35.20;91.70;;;;;;5002100;28;20048;-79
2023/06/23 12:54:51;;;;;;;16.17;6.30;;;31.50;93.70;;;;;;5010173;28;20511;-81
2023/06/23 12:57:55;;;;;;;18.35;6.28;;;31.90;95.10;;;;;;5011799;28;20122;-81
2023/06/23 13:01:02;;;;;;;23.20;7.13;;;33.40;93.20;;;;;;5006393;28;20500;-81
2023/06/23 13:04:06;;;;;;;20.60;5.68;;;34.20;92.70;;;;;;5019641;28;20092;-81
2023/06/23 13:07:10;;;;;;;13.65;5.72;;;34.60;92.10;;;;;;4999367;28;20065;-81
2023/06/23 13:10:14;;;;;;;16.30;5.07;;;34.80;91.90;;;;;;5002075;28;20397;-80
2023/06/23 13:13:18;;;;;;;14.55;5.10;;;34.50;92.20;;;;;;5007107;28;20041;-79
2023/06/23 13:16:22;;;;;;;13.98;5.30;;;34.00;91.10;;;;;;5012633;28;20440;-80
2023/06/23 13:19:26;;;;;;;14.75;5.22;;;34.40;92.50;;;;;;5014798;28;20041;-79
2023/06/23 13:22:32;;;;;;;13.35;5.53;;;34.70;91.50;;;;;;5006738;28;20045;-80
2023/06/23 13:25:36;;;;;;;17.23;5.72;;;35.00;91.80;;;;;;5015276;28;20093;-80
2023/06/23 13:28:40;;;;;;;15.13;5.20;;;35.00;92.10;;;;;;5005466;28;20591;-82
2023/06/23 13:31:44;;;;;;;17.90;5.72;;;35.20;92.20;;;;;;5010958;28;20381;-81
2023/06/23 13:34:49;;;;;;;17.45;5.47;;;35.10;92.20;;;;;;5006401;28;20057;-81
2023/06/23 13:37:57;;;;;;;13.18;5.00;;;34.90;92.60;;;;;;5010893;28;20053;-80
2023/06/23 13:41:01;;;;;;;10.52;4.53;;;34.30;92.10;;;;;;5009803;28;20041;-80
2023/06/23 13:44:06;;;;;;;13.77;4.90;;;33.60;92.90;;;;;;5000886;28;20049;-80
2023/06/23 13:47:10;;;;;;;18.30;4.72;;;33.30;93.20;;;;;;5012555;28;20044;-79
2023/06/23 13:50:16;;;;;;;10.23;4.50;;;33.20;93.50;;;;;;5010357;28;20065;-80
2023/06/23 13:53:20;;;;;;;12.57;4.85;;;33.10;93.10;;;;;;5012684;28;20049;-80
2023/06/23 13:56:24;;;;;;;14.52;4.25;;;32.90;93.10;;;;;;5001035;28;20053;-81
2023/06/23 13:59:29;;;;;;;13.73;4.10;;;32.90;93.40;;;;;;5007484;28;20069;-80
2023/06/23 14:02:33;;;;;;;14.15;4.50;;;32.70;93.20;;;;;;5008681;28;20053;-78
2023/06/23 14:05:36;;;;;;;10.43;3.60;;;32.60;93.40;;;;;;5004425;28;20397;-79
2023/06/23 14:08:41;;;;;;;10.48;4.07;;;32.40;93.10;;;;;;5010768;28;20041;-79
2023/06/23 14:11:45;;;;;;;9.93;3.88;;;32.10;93.30;;;;;;5010285;28;20041;-79
2023/06/23 14:14:49;;;;;;;8.20;3.03;;;32.00;93.20;;;;;;5009720;28;20048;-80
2023/06/23 14:17:53;;;;;;;9.27;3.70;;;31.80;93.50;;;;;;5010481;28;20044;-79
2023/06/23 14:20:57;;;;;;;10.98;3.50;;;31.70;93.90;;;;;;5011819;28;20057;-79
2023/06/23 14:24:02;;;;;;;11.55;3.95;;;31.50;93.80;;;;;;5009613;28;20381;-80
2023/06/23 14:27:06;;;;;;;13.50;3.78;;;31.40;94.00;;;;;;5011694;28;20049;-78
2023/06/23 14:30:11;;;;;;;7.70;3.10;;;31.30;93.70;;;;;;5010976;28;20064;-79
2023/06/23 14:33:15;;;;;;;12.55;3.30;;;31.40;93.60;;;;;;5010294;28;20499;-79
2023/06/23 14:36:19;;;;;;;6.65;3.13;;;31.40;93.70;;;;;;5013420;28;20052;-77
2023/06/23 14:39:23;;;;;;;10.60;4.22;;;31.20;94.00;;;;;;5010144;28;20061;-79
2023/06/23 14:42:28;;;;;;;13.63;4.07;;;30.70;94.60;;;;;;5011615;28;20053;-80
2023/06/23 14:45:39;;;;;;;9.43;3.72;;;30.40;95.30;;;;;;5011109;28;20041;-81
2023/06/23 14:48:44;;;;;;;10.65;3.53;;;30.00;95.70;;;;;;5000472;28;20392;-79
2023/06/23 14:51:48;;;;;;;12.25;3.90;;;29.90;96.00;;;;;;5009530;28;20044;-79
2023/06/23 14:54:52;;;;;;;11.60;3.97;;;29.90;95.90;;;;;;5008343;28;20053;-80
2023/06/23 14:57:56;;;;;;;12.20;3.88;;;30.00;96.30;;;;;;5009129;28;20483;-79
2023/06/23 15:01:01;;;;;;;12.60;4.00;;;30.10;97.40;;;;;;5008955;28;20057;-78
2023/06/23 15:04:05;;;;;;;11.90;4.20;;;30.10;97.40;;;;;;5010839;28;20061;-78
2023/06/23 15:07:09;;;;;;;15.80;4.07;;;30.00;97.80;;;;;;5008913;28;20033;-80
2023/06/23 15:10:13;;;;;;;14.18;3.90;;;29.90;98.50;;;;;;5009672;28;20037;-82
2023/06/23 15:13:17;;;;;;;13.63;4.85;;;30.00;99.20;;;;;;5010620;28;20064;-81
2023/06/23 15:16:23;;;;;;;21.05;5.15;;;30.10;98.90;;;;;;4993228;28;20045;-82
2023/06/23 15:19:27;;;;;;;13.07;5.07;;;30.00;98.80;;;;;;5003891;28;20351;-81
2023/06/23 15:22:31;;;;;;;11.55;4.30;;;30.00;99.10;;;;;;5009067;28;20041;-81
2023/06/23 15:25:35;;;;;;;13.80;4.00;;;30.20;99.40;;;;;;5005755;28;20511;-80
2023/06/23 15:28:39;;;;;;;15.40;5.05;;;30.00;99.30;;;;;;5005206;28;20033;-81
2023/06/23 15:31:43;;;;;;;14.23;4.43;;;29.70;99.80;;;;;;5005898;28;20405;-81
2023/06/23 15:34:48;;;;;;;18.92;5.70;;;29.50;99.90;;;;;;5004718;28;20056;-81
2023/06/23 15:37:54;;;;;;;9.48;4.15;;;29.00;99.90;;;;;;5008611;28;20037;-81
2023/06/23 15:40:59;;;;;;;13.40;4.10;;;28.90;99.90;;;;;;5011464;28;20052;-80
2023/06/23 15:44:03;;;;;;;11.32;4.22;;;28.80;99.90;;;;;;5010739;28;20041;-82
2023/06/23 15:47:08;;;;;;;10.48;4.25;;;28.80;99.90;;;;;;5010580;28;20053;-82
2023/06/23 15:50:12;;;;;;;10.10;4.22;;;28.80;99.90;;;;;;5011228;28;20444;-81
2023/06/23 15:53:16;;;;;;;14.43;4.72;;;28.70;99.90;;;;;;5009569;28;20041;-79
2023/06/23 15:56:20;;;;;;;7.40;3.35;;;28.50;99.90;;;;;;5009945;28;20033;-82
2023/06/23 15:59:24;;;;;;;10.13;4.32;;;28.40;99.90;;;;;;5008614;28;20400;-79
2023/06/23 16:02:28;;;;;;;10.80;4.00;;;28.20;99.90;;;;;;5010364;28;20081;-81
2023/06/23 16:05:32;;;;;;;10.07;3.92;;;27.90;99.90;;;;;;5010713;28;20053;-81